createdAt,value
2018-08-27T00:06:30.639Z,0
2018-08-27T00:16:30.605Z,0
2018-08-27T00:26:30.571Z,0
2018-08-27T00:36:30.633Z,0
2018-08-27T00:46:30.654Z,0
2018-08-27T00:56:30.609Z,0
2018-08-27T01:06:30.626Z,0
2018-08-27T01:16:30.589Z,0
2018-08-27T01:26:30.593Z,0
2018-08-27T01:36:30.603Z,0
2018-08-27T01:46:30.595Z,0
2018-08-27T01:56:30.622Z,0
2018-08-27T02:06:30.661Z,0
2018-08-27T02:16:30.591Z,0
2018-08-27T02:26:30.617Z,0
2018-08-27T02:36:30.644Z,0
2018-08-27T02:46:30.638Z,0
2018-08-27T02:56:30.633Z,0
2018-08-27T03:06:30.619Z,0
2018-08-27T03:16:30.622Z,0
2018-08-27T03:26:30.615Z,0
2018-08-27T03:36:30.631Z,0
2018-08-27T03:46:30.667Z,0
2018-08-27T03:56:30.619Z,0
2018-08-27T04:06:30.646Z,0
2018-08-27T04:16:30.681Z,0
2018-08-27T04:26:33.538Z,0
2018-08-27T04:36:30.730Z,0
2018-08-27T04:57:15.357Z,5
2018-08-27T04:57:55.908Z,5
2018-08-27T05:07:55.884Z,5
2018-08-27T05:17:55.904Z,10
2018-08-27T05:27:55.845Z,20
2018-08-27T05:37:55.856Z,25
2018-08-27T05:47:55.899Z,30
2018-08-27T05:57:55.852Z,20
2018-08-27T06:07:55.858Z,30
2018-08-27T06:17:55.912Z,20
2018-08-27T06:27:55.863Z,25
2018-08-27T06:37:55.928Z,35
2018-08-27T06:47:55.844Z,45
2018-08-27T06:57:55.845Z,50
2018-08-27T07:07:55.877Z,40
2018-08-27T07:17:55.884Z,40
2018-08-27T07:27:55.866Z,45
2018-08-27T07:37:55.885Z,55
2018-08-27T07:47:55.879Z,75
2018-08-27T07:57:55.843Z,75
2018-08-27T08:07:56.015Z,105
2018-08-27T08:17:55.910Z,75
2018-08-27T08:27:55.871Z,100
2018-08-27T08:37:55.867Z,205
2018-08-27T08:47:55.902Z,90
2018-08-27T08:57:55.872Z,155
2018-08-27T09:07:55.899Z,55
2018-08-27T09:17:55.867Z,95
2018-08-27T09:27:55.856Z,110
2018-08-27T09:37:55.869Z,100
2018-08-27T09:47:55.869Z,100
2018-08-27T09:57:55.916Z,85
2018-08-27T10:07:55.975Z,125
2018-08-27T10:17:55.871Z,175
2018-08-27T10:27:55.895Z,85
2018-08-27T10:37:55.855Z,80
2018-08-27T10:47:55.883Z,155
2018-08-27T10:57:55.894Z,155
2018-08-27T11:07:55.911Z,245
2018-08-27T11:17:55.898Z,265
2018-08-27T11:27:55.981Z,250
2018-08-27T11:37:55.909Z,130
2018-08-27T11:47:55.879Z,50
2018-08-27T11:57:55.937Z,170
2018-08-27T12:07:55.911Z,215
2018-08-27T12:17:55.926Z,270
2018-08-27T12:27:55.980Z,255
2018-08-27T12:37:56.003Z,210
2018-08-27T12:47:55.987Z,190
2018-08-27T12:57:55.887Z,160
2018-08-27T13:07:55.927Z,230
2018-08-27T13:17:55.974Z,120
2018-08-27T13:27:55.917Z,225
2018-08-27T13:37:55.942Z,240
2018-08-27T13:47:55.901Z,255
2018-08-27T13:57:55.930Z,230
2018-08-27T14:07:55.901Z,225
2018-08-27T14:17:55.915Z,175
2018-08-27T14:27:55.923Z,190
2018-08-27T14:37:56.005Z,180
2018-08-27T14:47:56.028Z,170
2018-08-27T14:57:55.968Z,175
2018-08-27T15:07:55.922Z,170
2018-08-27T15:17:55.910Z,155
2018-08-27T15:27:55.914Z,85
2018-08-27T15:37:55.946Z,90
2018-08-27T15:47:55.942Z,135
2018-08-27T15:57:56.016Z,65
2018-08-27T16:07:55.990Z,115
2018-08-27T16:17:56.111Z,110
2018-08-27T16:27:58.087Z,100
2018-08-27T16:37:55.884Z,85
2018-08-27T16:47:55.970Z,80
2018-08-27T16:57:55.969Z,70
2018-08-27T17:07:55.960Z,55
2018-08-27T17:17:56.015Z,45
2018-08-27T17:27:56.026Z,35
2018-08-27T17:37:55.931Z,30
2018-08-27T17:47:55.961Z,15
2018-08-27T17:57:56.083Z,10
2018-08-27T18:07:58.231Z,5
2018-08-27T18:17:56.861Z,0
2018-08-27T18:27:58.454Z,0
2018-08-27T18:37:59.313Z,0
2018-08-27T18:47:56.135Z,0
2018-08-27T18:57:59.591Z,0
2018-08-27T19:08:00.060Z,0
2018-08-27T19:18:00.292Z,0
2018-08-27T19:28:00.994Z,0
2018-08-27T19:38:00.926Z,0
2018-08-27T19:47:56.583Z,0
2018-08-27T19:57:56.060Z,0
2018-08-27T20:07:56.096Z,0
2018-08-27T20:17:55.967Z,0
2018-08-27T20:27:56.008Z,0
2018-08-27T20:37:55.947Z,0
2018-08-27T20:47:56.085Z,0
2018-08-27T20:57:56.093Z,0
2018-08-27T21:07:56.073Z,0
2018-08-27T21:17:56.048Z,0
2018-08-27T21:27:55.940Z,0
2018-08-27T21:37:56.099Z,0
2018-08-27T21:47:56.160Z,0
2018-08-27T21:57:56.003Z,0
2018-08-27T22:14:23.231Z,0
2018-08-27T22:17:55.941Z,0
2018-08-27T22:27:56.060Z,0
2018-08-27T22:37:56.035Z,0
2018-08-27T22:47:57.011Z,0
2018-08-27T22:57:56.106Z,0
2018-08-27T23:07:55.998Z,0
2018-08-27T23:17:56.071Z,0
2018-08-27T23:27:56.088Z,0
2018-08-27T23:37:56.036Z,0
2018-08-27T23:47:56.051Z,0
2018-08-27T23:57:56.087Z,0
